sensor_id;sensor_type;location;lat;lon;timestamp;temperature;humidity
39493;DHT22;25176;51.060;3.720;2023-04-03T00:02:12;6.80;96.70
39493;DHT22;25176;51.060;3.720;2023-04-03T00:04:37;6.80;96.40
39493;DHT22;25176;51.060;3.720;2023-04-03T00:07:03;6.70;96.50
39493;DHT22;25176;51.060;3.720;2023-04-03T00:09:28;6.80;96.40
39493;DHT22;25176;51.060;3.720;2023-04-03T00:11:54;6.80;96.40
39493;DHT22;25176;51.060;3.720;2023-04-03T00:14:20;6.80;96.50
39493;DHT22;25176;51.060;3.720;2023-04-03T00:16:45;6.80;96.50
39493;DHT22;25176;51.060;3.720;2023-04-03T00:19:11;6.90;96.30
39493;DHT22;25176;51.060;3.720;2023-04-03T00:21:38;6.90;96.20
39493;DHT22;25176;51.060;3.720;2023-04-03T00:24:04;6.80;96.20
39493;DHT22;25176;51.060;3.720;2023-04-03T00:26:29;6.80;96.00
39493;DHT22;25176;51.060;3.720;2023-04-03T00:28:55;6.70;96.30
39493;DHT22;25176;51.060;3.720;2023-04-03T00:31:21;6.70;95.90
39493;DHT22;25176;51.060;3.720;2023-04-03T00:33:47;6.70;96.20
39493;DHT22;25176;51.060;3.720;2023-04-03T00:36:13;6.70;96.30
39493;DHT22;25176;51.060;3.720;2023-04-03T00:38:38;6.70;96.20
39493;DHT22;25176;51.060;3.720;2023-04-03T00:41:04;6.70;96.40
39493;DHT22;25176;51.060;3.720;2023-04-03T00:43:30;6.60;96.30
39493;DHT22;25176;51.060;3.720;2023-04-03T00:45:57;6.60;96.30
39493;DHT22;25176;51.060;3.720;2023-04-03T00:48:29;6.70;96.30
39493;DHT22;25176;51.060;3.720;2023-04-03T00:50:56;6.70;96.30
39493;DHT22;25176;51.060;3.720;2023-04-03T00:53:27;6.70;96.20
39493;DHT22;25176;51.060;3.720;2023-04-03T00:55:55;6.70;96.10
39493;DHT22;25176;51.060;3.720;2023-04-03T00:58:25;6.60;96.30
39493;DHT22;25176;51.060;3.720;2023-04-03T01:00:55;6.60;96.30
39493;DHT22;25176;51.060;3.720;2023-04-03T01:03:23;6.60;96.20
39493;DHT22;25176;51.060;3.720;2023-04-03T01:05:49;6.50;96.40
39493;DHT22;25176;51.060;3.720;2023-04-03T01:08:15;6.50;96.50
39493;DHT22;25176;51.060;3.720;2023-04-03T01:10:41;6.50;96.60
39493;DHT22;25176;51.060;3.720;2023-04-03T01:13:23;6.60;96.60
39493;DHT22;25176;51.060;3.720;2023-04-03T01:15:49;6.60;96.40
39493;DHT22;25176;51.060;3.720;2023-04-03T01:18:15;6.50;96.40
39493;DHT22;25176;51.060;3.720;2023-04-03T01:25:54;6.30;96.80
39493;DHT22;25176;51.060;3.720;2023-04-03T01:28:31;6.30;97.10
39493;DHT22;25176;51.060;3.720;2023-04-03T01:31:14;6.20;96.90
39493;DHT22;25176;51.060;3.720;2023-04-03T01:33:41;6.20;97.20
39493;DHT22;25176;51.060;3.720;2023-04-03T01:36:08;6.20;97.30
39493;DHT22;25176;51.060;3.720;2023-04-03T01:38:33;6.20;97.20
39493;DHT22;25176;51.060;3.720;2023-04-03T01:40:59;6.10;97.20
39493;DHT22;25176;51.060;3.720;2023-04-03T01:43:25;6.10;97.40
39493;DHT22;25176;51.060;3.720;2023-04-03T01:45:50;6.10;97.10
39493;DHT22;25176;51.060;3.720;2023-04-03T01:48:18;6.00;97.50
39493;DHT22;25176;51.060;3.720;2023-04-03T01:50:43;6.00;97.50
39493;DHT22;25176;51.060;3.720;2023-04-03T01:53:09;5.90;97.90
39493;DHT22;25176;51.060;3.720;2023-04-03T01:55:34;5.90;97.90
39493;DHT22;25176;51.060;3.720;2023-04-03T01:58:00;6.00;97.80
39493;DHT22;25176;51.060;3.720;2023-04-03T02:00:26;6.00;97.80
39493;DHT22;25176;51.060;3.720;2023-04-03T02:02:52;6.00;97.80
39493;DHT22;25176;51.060;3.720;2023-04-03T02:05:18;6.10;97.90
39493;DHT22;25176;51.060;3.720;2023-04-03T02:07:43;6.10;97.90
39493;DHT22;25176;51.060;3.720;2023-04-03T02:10:09;6.10;97.70
39493;DHT22;25176;51.060;3.720;2023-04-03T02:12:35;6.10;97.80
39493;DHT22;25176;51.060;3.720;2023-04-03T02:15:01;6.00;97.90
39493;DHT22;25176;51.060;3.720;2023-04-03T02:17:27;6.00;98.00
39493;DHT22;25176;51.060;3.720;2023-04-03T02:19:52;5.90;98.00
39493;DHT22;25176;51.060;3.720;2023-04-03T02:22:18;5.90;97.80
39493;DHT22;25176;51.060;3.720;2023-04-03T02:24:44;5.90;98.20
39493;DHT22;25176;51.060;3.720;2023-04-03T02:27:10;5.90;98.00
39493;DHT22;25176;51.060;3.720;2023-04-03T02:29:35;5.90;97.80
39493;DHT22;25176;51.060;3.720;2023-04-03T02:32:01;5.80;97.70
39493;DHT22;25176;51.060;3.720;2023-04-03T02:34:26;5.80;97.90
39493;DHT22;25176;51.060;3.720;2023-04-03T02:36:52;5.80;97.90
39493;DHT22;25176;51.060;3.720;2023-04-03T02:39:17;5.80;97.80
39493;DHT22;25176;51.060;3.720;2023-04-03T02:41:43;5.80;97.60
39493;DHT22;25176;51.060;3.720;2023-04-03T02:44:10;5.80;97.80
39493;DHT22;25176;51.060;3.720;2023-04-03T02:46:36;5.90;97.70
39493;DHT22;25176;51.060;3.720;2023-04-03T02:49:02;5.80;97.60
39493;DHT22;25176;51.060;3.720;2023-04-03T02:51:28;5.90;97.70
39493;DHT22;25176;51.060;3.720;2023-04-03T02:53:53;5.80;97.60
39493;DHT22;25176;51.060;3.720;2023-04-03T02:56:19;5.90;97.70
39493;DHT22;25176;51.060;3.720;2023-04-03T02:58:45;5.80;97.80
39493;DHT22;25176;51.060;3.720;2023-04-03T03:01:11;5.80;97.70
39493;DHT22;25176;51.060;3.720;2023-04-03T03:03:37;5.80;97.70
39493;DHT22;25176;51.060;3.720;2023-04-03T03:06:20;5.80;97.50
39493;DHT22;25176;51.060;3.720;2023-04-03T03:08:46;5.90;97.50
39493;DHT22;25176;51.060;3.720;2023-04-03T03:11:12;5.90;97.60
39493;DHT22;25176;51.060;3.720;2023-04-03T03:13:37;5.80;97.60
39493;DHT22;25176;51.060;3.720;2023-04-03T03:16:03;5.90;97.50
39493;DHT22;25176;51.060;3.720;2023-04-03T03:18:29;5.90;97.30
39493;DHT22;25176;51.060;3.720;2023-04-03T03:20:57;5.90;97.30
39493;DHT22;25176;51.060;3.720;2023-04-03T03:23:24;5.90;97.30
39493;DHT22;25176;51.060;3.720;2023-04-03T03:26:01;6.00;97.10
39493;DHT22;25176;51.060;3.720;2023-04-03T03:28:27;6.00;97.10
39493;DHT22;25176;51.060;3.720;2023-04-03T03:30:53;5.90;96.90
39493;DHT22;25176;51.060;3.720;2023-04-03T03:33:19;5.90;96.90
39493;DHT22;25176;51.060;3.720;2023-04-03T03:35:45;5.90;97.10
39493;DHT22;25176;51.060;3.720;2023-04-03T03:38:11;5.90;96.90
39493;DHT22;25176;51.060;3.720;2023-04-03T03:40:37;5.80;97.10
39493;DHT22;25176;51.060;3.720;2023-04-03T03:43:02;5.90;97.20
39493;DHT22;25176;51.060;3.720;2023-04-03T03:45:28;5.80;97.20
39493;DHT22;25176;51.060;3.720;2023-04-03T03:47:53;5.80;97.30
39493;DHT22;25176;51.060;3.720;2023-04-03T03:50:19;5.80;97.30
39493;DHT22;25176;51.060;3.720;2023-04-03T03:52:45;5.70;97.00
39493;DHT22;25176;51.060;3.720;2023-04-03T03:55:11;5.60;97.40
39493;DHT22;25176;51.060;3.720;2023-04-03T03:57:37;5.60;97.60
39493;DHT22;25176;51.060;3.720;2023-04-03T04:00:03;5.60;97.70
39493;DHT22;25176;51.060;3.720;2023-04-03T04:02:29;5.60;97.30
39493;DHT22;25176;51.060;3.720;2023-04-03T04:04:56;5.60;97.40
39493;DHT22;25176;51.060;3.720;2023-04-03T04:07:21;5.60;97.60
39493;DHT22;25176;51.060;3.720;2023-04-03T04:09:48;5.60;97.50
39493;DHT22;25176;51.060;3.720;2023-04-03T04:12:13;5.60;97.60
39493;DHT22;25176;51.060;3.720;2023-04-03T04:14:39;5.70;97.50
39493;DHT22;25176;51.060;3.720;2023-04-03T04:17:05;5.70;97.60
39493;DHT22;25176;51.060;3.720;2023-04-03T04:19:31;5.70;97.20
39493;DHT22;25176;51.060;3.720;2023-04-03T04:21:56;5.70;97.30
39493;DHT22;25176;51.060;3.720;2023-04-03T04:24:22;5.70;97.30
39493;DHT22;25176;51.060;3.720;2023-04-03T04:26:50;5.60;97.50
39493;DHT22;25176;51.060;3.720;2023-04-03T04:29:16;5.60;97.50
39493;DHT22;25176;51.060;3.720;2023-04-03T04:31:42;5.60;97.40
39493;DHT22;25176;51.060;3.720;2023-04-03T04:34:07;5.50;97.50
39493;DHT22;25176;51.060;3.720;2023-04-03T04:36:33;5.60;97.60
39493;DHT22;25176;51.060;3.720;2023-04-03T04:38:58;5.60;97.70
39493;DHT22;25176;51.060;3.720;2023-04-03T04:41:24;5.60;97.60
39493;DHT22;25176;51.060;3.720;2023-04-03T04:43:50;5.60;97.60
39493;DHT22;25176;51.060;3.720;2023-04-03T04:46:16;5.50;97.70
39493;DHT22;25176;51.060;3.720;2023-04-03T04:48:41;5.50;97.80
39493;DHT22;25176;51.060;3.720;2023-04-03T04:51:07;5.40;97.80
39493;DHT22;25176;51.060;3.720;2023-04-03T04:53:33;5.50;97.90
39493;DHT22;25176;51.060;3.720;2023-04-03T04:55:59;5.40;97.80
39493;DHT22;25176;51.060;3.720;2023-04-03T04:58:24;5.40;98.00
39493;DHT22;25176;51.060;3.720;2023-04-03T05:01:01;5.40;98.10
39493;DHT22;25176;51.060;3.720;2023-04-03T05:03:27;5.40;98.00
39493;DHT22;25176;51.060;3.720;2023-04-03T05:05:53;5.40;98.00
39493;DHT22;25176;51.060;3.720;2023-04-03T05:08:20;5.40;98.10
39493;DHT22;25176;51.060;3.720;2023-04-03T05:10:46;5.40;98.20
39493;DHT22;25176;51.060;3.720;2023-04-03T05:13:12;5.40;98.10
39493;DHT22;25176;51.060;3.720;2023-04-03T05:15:38;5.40;98.20
39493;DHT22;25176;51.060;3.720;2023-04-03T05:18:03;5.20;98.50
39493;DHT22;25176;51.060;3.720;2023-04-03T05:20:30;5.30;98.60
39493;DHT22;25176;51.060;3.720;2023-04-03T05:22:56;5.30;98.40
39493;DHT22;25176;51.060;3.720;2023-04-03T05:25:22;5.40;98.90
39493;DHT22;25176;51.060;3.720;2023-04-03T05:27:47;5.40;98.60
39493;DHT22;25176;51.060;3.720;2023-04-03T05:30:13;5.40;98.50
39493;DHT22;25176;51.060;3.720;2023-04-03T05:32:38;5.40;98.40
39493;DHT22;25176;51.060;3.720;2023-04-03T05:35:05;5.40;98.40
39493;DHT22;25176;51.060;3.720;2023-04-03T05:37:31;5.40;98.50
39493;DHT22;25176;51.060;3.720;2023-04-03T05:39:57;5.40;98.70
39493;DHT22;25176;51.060;3.720;2023-04-03T05:42:23;5.30;98.80
39493;DHT22;25176;51.060;3.720;2023-04-03T05:44:48;5.30;99.00
39493;DHT22;25176;51.060;3.720;2023-04-03T05:47:15;5.30;99.20
39493;DHT22;25176;51.060;3.720;2023-04-03T05:49:41;5.40;99.10
39493;DHT22;25176;51.060;3.720;2023-04-03T05:52:27;5.40;99.00
39493;DHT22;25176;51.060;3.720;2023-04-03T05:54:53;5.40;99.10
39493;DHT22;25176;51.060;3.720;2023-04-03T05:57:19;5.40;98.90
39493;DHT22;25176;51.060;3.720;2023-04-03T05:59:46;5.30;99.00
39493;DHT22;25176;51.060;3.720;2023-04-03T06:02:21;5.30;99.30
39493;DHT22;25176;51.060;3.720;2023-04-03T06:04:47;5.30;99.10
39493;DHT22;25176;51.060;3.720;2023-04-03T06:07:24;5.30;99.30
39493;DHT22;25176;51.060;3.720;2023-04-03T06:09:52;5.40;99.30
39493;DHT22;25176;51.060;3.720;2023-04-03T06:12:18;5.40;99.10
39493;DHT22;25176;51.060;3.720;2023-04-03T06:14:44;5.40;99.00
39493;DHT22;25176;51.060;3.720;2023-04-03T06:17:10;5.50;98.90
39493;DHT22;25176;51.060;3.720;2023-04-03T06:19:37;5.50;99.00
39493;DHT22;25176;51.060;3.720;2023-04-03T06:22:03;5.60;98.90
39493;DHT22;25176;51.060;3.720;2023-04-03T06:24:29;5.70;98.80
39493;DHT22;25176;51.060;3.720;2023-04-03T06:26:56;5.80;98.50
39493;DHT22;25176;51.060;3.720;2023-04-03T06:29:22;5.80;98.30
39493;DHT22;25176;51.060;3.720;2023-04-03T06:31:48;5.90;98.40
39493;DHT22;25176;51.060;3.720;2023-04-03T06:34:14;5.90;97.90
39493;DHT22;25176;51.060;3.720;2023-04-03T06:36:41;6.00;98.00
39493;DHT22;25176;51.060;3.720;2023-04-03T06:39:09;5.90;97.80
39493;DHT22;25176;51.060;3.720;2023-04-03T06:41:38;5.90;98.00
39493;DHT22;25176;51.060;3.720;2023-04-03T06:44:03;6.00;97.90
39493;DHT22;25176;51.060;3.720;2023-04-03T06:46:29;6.00;97.90
39493;DHT22;25176;51.060;3.720;2023-04-03T06:48:55;6.10;97.70
39493;DHT22;25176;51.060;3.720;2023-04-03T06:51:26;6.20;97.70
39493;DHT22;25176;51.060;3.720;2023-04-03T06:53:53;6.20;97.60
39493;DHT22;25176;51.060;3.720;2023-04-03T06:56:20;6.20;97.40
39493;DHT22;25176;51.060;3.720;2023-04-03T06:58:45;6.30;97.50
39493;DHT22;25176;51.060;3.720;2023-04-03T07:01:13;6.50;97.50
39493;DHT22;25176;51.060;3.720;2023-04-03T07:03:41;6.40;96.90
39493;DHT22;25176;51.060;3.720;2023-04-03T07:06:09;6.40;97.20
39493;DHT22;25176;51.060;3.720;2023-04-03T07:08:35;6.60;97.40
39493;DHT22;25176;51.060;3.720;2023-04-03T07:11:01;6.60;97.20
39493;DHT22;25176;51.060;3.720;2023-04-03T07:13:27;6.60;97.30
39493;DHT22;25176;51.060;3.720;2023-04-03T07:15:53;6.60;97.10
39493;DHT22;25176;51.060;3.720;2023-04-03T07:18:19;6.70;96.90
39493;DHT22;25176;51.060;3.720;2023-04-03T07:20:44;6.80;97.00
39493;DHT22;25176;51.060;3.720;2023-04-03T07:23:10;6.80;96.90
39493;DHT22;25176;51.060;3.720;2023-04-03T07:25:36;6.70;97.30
39493;DHT22;25176;51.060;3.720;2023-04-03T07:28:03;6.70;97.30
39493;DHT22;25176;51.060;3.720;2023-04-03T07:30:29;6.80;97.10
39493;DHT22;25176;51.060;3.720;2023-04-03T07:32:54;6.70;97.00
39493;DHT22;25176;51.060;3.720;2023-04-03T07:35:20;6.60;97.30
39493;DHT22;25176;51.060;3.720;2023-04-03T07:37:45;6.70;97.30
39493;DHT22;25176;51.060;3.720;2023-04-03T07:40:11;6.90;97.00
39493;DHT22;25176;51.060;3.720;2023-04-03T07:42:37;7.00;97.00
39493;DHT22;25176;51.060;3.720;2023-04-03T07:45:04;7.60;96.90
39493;DHT22;25176;51.060;3.720;2023-04-03T07:47:30;10.20;95.50
39493;DHT22;25176;51.060;3.720;2023-04-03T07:49:56;12.70;90.80
39493;DHT22;25176;51.060;3.720;2023-04-03T07:52:22;14.80;87.80
39493;DHT22;25176;51.060;3.720;2023-04-03T07:54:48;15.50;80.50
39493;DHT22;25176;51.060;3.720;2023-04-03T07:57:13;16.70;77.70
39493;DHT22;25176;51.060;3.720;2023-04-03T07:59:39;17.80;72.90
39493;DHT22;25176;51.060;3.720;2023-04-03T08:02:11;17.40;70.00
39493;DHT22;25176;51.060;3.720;2023-04-03T08:04:37;18.00;68.40
39493;DHT22;25176;51.060;3.720;2023-04-03T08:07:03;18.70;66.00
39493;DHT22;25176;51.060;3.720;2023-04-03T08:09:28;19.10;65.70
39493;DHT22;25176;51.060;3.720;2023-04-03T08:11:54;21.10;60.60
39493;DHT22;25176;51.060;3.720;2023-04-03T08:14:20;22.00;59.50
39493;DHT22;25176;51.060;3.720;2023-04-03T08:16:47;21.80;59.90
39493;DHT22;25176;51.060;3.720;2023-04-03T08:19:13;22.70;56.20
39493;DHT22;25176;51.060;3.720;2023-04-03T08:21:41;24.90;52.60
39493;DHT22;25176;51.060;3.720;2023-04-03T08:24:07;25.30;51.10
39493;DHT22;25176;51.060;3.720;2023-04-03T08:26:33;25.70;49.60
39493;DHT22;25176;51.060;3.720;2023-04-03T08:28:59;27.20;48.70
39493;DHT22;25176;51.060;3.720;2023-04-03T08:31:25;28.50;47.00
39493;DHT22;25176;51.060;3.720;2023-04-03T08:33:50;30.30;43.00
39493;DHT22;25176;51.060;3.720;2023-04-03T08:36:21;28.70;43.40
39493;DHT22;25176;51.060;3.720;2023-04-03T08:38:48;24.60;44.30
39493;DHT22;25176;51.060;3.720;2023-04-03T08:41:39;26.20;45.60
39493;DHT22;25176;51.060;3.720;2023-04-03T08:44:21;26.10;43.90
39493;DHT22;25176;51.060;3.720;2023-04-03T08:49:32;28.10;41.80
39493;DHT22;25176;51.060;3.720;2023-04-03T08:52:02;23.90;45.60
39493;DHT22;25176;51.060;3.720;2023-04-03T08:54:59;26.20;44.20
39493;DHT22;25176;51.060;3.720;2023-04-03T08:57:39;26.60;43.00
39493;DHT22;25176;51.060;3.720;2023-04-03T09:00:21;26.90;42.20
39493;DHT22;25176;51.060;3.720;2023-04-03T09:02:49;25.10;42.10
39493;DHT22;25176;51.060;3.720;2023-04-03T09:05:35;23.20;44.90
39493;DHT22;25176;51.060;3.720;2023-04-03T09:10:42;28.50;40.70
39493;DHT22;25176;51.060;3.720;2023-04-03T09:13:30;26.80;40.00
39493;DHT22;25176;51.060;3.720;2023-04-03T09:16:00;24.00;42.80
39493;DHT22;25176;51.060;3.720;2023-04-03T09:18:30;26.80;41.80
39493;DHT22;25176;51.060;3.720;2023-04-03T09:21:23;26.70;41.00
39493;DHT22;25176;51.060;3.720;2023-04-03T09:23:52;25.00;42.00
39493;DHT22;25176;51.060;3.720;2023-04-03T09:26:24;23.10;43.80
39493;DHT22;25176;51.060;3.720;2023-04-03T09:28:54;23.20;43.40
39493;DHT22;25176;51.060;3.720;2023-04-03T09:33:50;21.20;43.90
39493;DHT22;25176;51.060;3.720;2023-04-03T09:36:37;21.90;43.90
39493;DHT22;25176;51.060;3.720;2023-04-03T09:39:48;23.40;42.90
39493;DHT22;25176;51.060;3.720;2023-04-03T09:44:27;25.30;40.50
39493;DHT22;25176;51.060;3.720;2023-04-03T09:46:52;23.70;41.10
39493;DHT22;25176;51.060;3.720;2023-04-03T09:49:18;23.30;40.80
39493;DHT22;25176;51.060;3.720;2023-04-03T09:51:45;24.00;41.20
39493;DHT22;25176;51.060;3.720;2023-04-03T09:54:35;22.40;42.10
39493;DHT22;25176;51.060;3.720;2023-04-03T09:57:11;21.10;44.20
39493;DHT22;25176;51.060;3.720;2023-04-03T09:59:58;20.70;43.80
39493;DHT22;25176;51.060;3.720;2023-04-03T10:04:53;22.20;43.20
39493;DHT22;25176;51.060;3.720;2023-04-03T10:07:31;23.30;42.30
39493;DHT22;25176;51.060;3.720;2023-04-03T10:09:58;23.50;41.10
39493;DHT22;25176;51.060;3.720;2023-04-03T10:12:25;21.30;42.60
39493;DHT22;25176;51.060;3.720;2023-04-03T10:15:01;22.20;42.50
39493;DHT22;25176;51.060;3.720;2023-04-03T10:17:32;24.80;39.90
39493;DHT22;25176;51.060;3.720;2023-04-03T10:23:15;23.60;40.80
39493;DHT22;25176;51.060;3.720;2023-04-03T10:28:48;23.20;41.30
39493;DHT22;25176;51.060;3.720;2023-04-03T10:34:29;23.60;40.00
39493;DHT22;25176;51.060;3.720;2023-04-03T10:42:18;18.70;45.90
39493;DHT22;25176;51.060;3.720;2023-04-03T10:44:55;17.60;47.60
39493;DHT22;25176;51.060;3.720;2023-04-03T10:47:36;16.30;47.90
39493;DHT22;25176;51.060;3.720;2023-04-03T10:50:35;15.10;50.70
39493;DHT22;25176;51.060;3.720;2023-04-03T10:59:18;13.80;50.20
39493;DHT22;25176;51.060;3.720;2023-04-03T11:01:51;13.50;49.80
39493;DHT22;25176;51.060;3.720;2023-04-03T11:04:19;13.30;50.50
39493;DHT22;25176;51.060;3.720;2023-04-03T11:07:03;13.10;51.70
39493;DHT22;25176;51.060;3.720;2023-04-03T11:09:34;13.30;52.10
39493;DHT22;25176;51.060;3.720;2023-04-03T11:14:40;12.20;52.80
39493;DHT22;25176;51.060;3.720;2023-04-03T11:17:18;12.00;54.30
39493;DHT22;25176;51.060;3.720;2023-04-03T11:20:10;12.30;54.20
39493;DHT22;25176;51.060;3.720;2023-04-03T11:22:42;12.10;53.60
39493;DHT22;25176;51.060;3.720;2023-04-03T11:27:46;11.90;54.40
39493;DHT22;25176;51.060;3.720;2023-04-03T11:30:40;12.00;54.10
39493;DHT22;25176;51.060;3.720;2023-04-03T11:33:14;12.00;52.90
39493;DHT22;25176;51.060;3.720;2023-04-03T11:35:51;11.70;52.80
39493;DHT22;25176;51.060;3.720;2023-04-03T11:38:21;11.60;53.10
39493;DHT22;25176;51.060;3.720;2023-04-03T11:40:49;11.60;53.70
39493;DHT22;25176;51.060;3.720;2023-04-03T11:43:24;11.60;53.00
39493;DHT22;25176;51.060;3.720;2023-04-03T11:46:07;11.70;51.40
39493;DHT22;25176;51.060;3.720;2023-04-03T11:48:42;11.80;51.60
39493;DHT22;25176;51.060;3.720;2023-04-03T11:53:43;11.50;48.00
39493;DHT22;25176;51.060;3.720;2023-04-03T12:01:48;11.60;49.40
39493;DHT22;25176;51.060;3.720;2023-04-03T12:04:17;11.50;50.00
39493;DHT22;25176;51.060;3.720;2023-04-03T12:12:00;11.80;50.50
39493;DHT22;25176;51.060;3.720;2023-04-03T12:14:28;11.60;50.20
39493;DHT22;25176;51.060;3.720;2023-04-03T12:16:55;11.50;50.30
39493;DHT22;25176;51.060;3.720;2023-04-03T12:19:39;11.60;50.70
39493;DHT22;25176;51.060;3.720;2023-04-03T12:22:12;11.50;51.90
39493;DHT22;25176;51.060;3.720;2023-04-03T12:24:40;11.50;53.10
39493;DHT22;25176;51.060;3.720;2023-04-03T12:27:29;11.60;53.90
39493;DHT22;25176;51.060;3.720;2023-04-03T12:38:02;11.90;54.00
39493;DHT22;25176;51.060;3.720;2023-04-03T12:40:58;11.90;53.90
39493;DHT22;25176;51.060;3.720;2023-04-03T12:46:22;11.60;53.40
39493;DHT22;25176;51.060;3.720;2023-04-03T12:48:54;11.70;53.10
39493;DHT22;25176;51.060;3.720;2023-04-03T12:54:12;11.60;53.80
39493;DHT22;25176;51.060;3.720;2023-04-03T12:56:38;11.80;53.90
39493;DHT22;25176;51.060;3.720;2023-04-03T12:59:22;11.80;52.50
39493;DHT22;25176;51.060;3.720;2023-04-03T13:02:00;11.60;53.50
39493;DHT22;25176;51.060;3.720;2023-04-03T13:04:31;11.60;53.00
39493;DHT22;25176;51.060;3.720;2023-04-03T13:06:58;11.50;53.10
39493;DHT22;25176;51.060;3.720;2023-04-03T13:11:54;11.80;52.30
39493;DHT22;25176;51.060;3.720;2023-04-03T13:14:23;11.90;50.90
39493;DHT22;25176;51.060;3.720;2023-04-03T13:17:03;11.80;50.30
39493;DHT22;25176;51.060;3.720;2023-04-03T13:19:31;11.80;50.60
39493;DHT22;25176;51.060;3.720;2023-04-03T13:22:02;11.60;51.30
39493;DHT22;25176;51.060;3.720;2023-04-03T13:24:30;11.80;50.90
39493;DHT22;25176;51.060;3.720;2023-04-03T13:26:58;11.80;50.50
39493;DHT22;25176;51.060;3.720;2023-04-03T13:29:28;11.80;49.30
39493;DHT22;25176;51.060;3.720;2023-04-03T13:31:55;11.90;49.80
39493;DHT22;25176;51.060;3.720;2023-04-03T13:34:22;12.10;49.70
39493;DHT22;25176;51.060;3.720;2023-04-03T13:39:31;11.80;49.80
39493;DHT22;25176;51.060;3.720;2023-04-03T13:42:21;11.90;50.20
39493;DHT22;25176;51.060;3.720;2023-04-03T13:44:47;11.90;48.70
39493;DHT22;25176;51.060;3.720;2023-04-03T13:50:13;12.00;47.30
39493;DHT22;25176;51.060;3.720;2023-04-03T13:53:02;12.00;47.00
39493;DHT22;25176;51.060;3.720;2023-04-03T13:55:31;12.00;47.20
39493;DHT22;25176;51.060;3.720;2023-04-03T13:58:00;11.90;46.80
39493;DHT22;25176;51.060;3.720;2023-04-03T14:00:46;11.70;46.50
39493;DHT22;25176;51.060;3.720;2023-04-03T14:03:43;11.70;46.40
39493;DHT22;25176;51.060;3.720;2023-04-03T14:06:14;11.70;46.60
39493;DHT22;25176;51.060;3.720;2023-04-03T14:08:41;11.80;46.10
39493;DHT22;25176;51.060;3.720;2023-04-03T14:11:11;12.00;46.60
39493;DHT22;25176;51.060;3.720;2023-04-03T14:13:38;12.20;46.40
39493;DHT22;25176;51.060;3.720;2023-04-03T14:16:03;12.20;46.00
39493;DHT22;25176;51.060;3.720;2023-04-03T14:18:29;12.30;45.60
39493;DHT22;25176;51.060;3.720;2023-04-03T14:20:55;12.30;46.20
39493;DHT22;25176;51.060;3.720;2023-04-03T14:23:20;12.00;46.30
39493;DHT22;25176;51.060;3.720;2023-04-03T14:25:46;11.90;46.90
39493;DHT22;25176;51.060;3.720;2023-04-03T14:28:20;11.90;47.10
39493;DHT22;25176;51.060;3.720;2023-04-03T14:30:49;11.90;46.90
39493;DHT22;25176;51.060;3.720;2023-04-03T14:33:18;11.90;46.70
39493;DHT22;25176;51.060;3.720;2023-04-03T14:35:45;11.60;46.30
39493;DHT22;25176;51.060;3.720;2023-04-03T14:38:41;11.50;46.80
39493;DHT22;25176;51.060;3.720;2023-04-03T14:41:07;11.80;45.50
39493;DHT22;25176;51.060;3.720;2023-04-03T14:43:32;11.70;45.20
39493;DHT22;25176;51.060;3.720;2023-04-03T14:45:58;11.60;45.10
39493;DHT22;25176;51.060;3.720;2023-04-03T14:48:26;11.50;46.50
39493;DHT22;25176;51.060;3.720;2023-04-03T14:50:53;11.70;46.20
39493;DHT22;25176;51.060;3.720;2023-04-03T14:53:19;11.80;46.90
39493;DHT22;25176;51.060;3.720;2023-04-03T14:55:49;11.80;46.20
39493;DHT22;25176;51.060;3.720;2023-04-03T14:58:17;11.80;45.80
39493;DHT22;25176;51.060;3.720;2023-04-03T15:00:44;11.90;46.10
39493;DHT22;25176;51.060;3.720;2023-04-03T15:03:13;12.00;46.10
39493;DHT22;25176;51.060;3.720;2023-04-03T15:05:39;12.00;46.50
39493;DHT22;25176;51.060;3.720;2023-04-03T15:08:08;11.70;46.10
39493;DHT22;25176;51.060;3.720;2023-04-03T15:10:39;11.70;46.70
39493;DHT22;25176;51.060;3.720;2023-04-03T15:13:04;11.80;46.50
39493;DHT22;25176;51.060;3.720;2023-04-03T15:15:31;11.70;46.60
39493;DHT22;25176;51.060;3.720;2023-04-03T15:17:57;11.60;46.50
39493;DHT22;25176;51.060;3.720;2023-04-03T15:20:24;11.40;47.00
39493;DHT22;25176;51.060;3.720;2023-04-03T15:22:50;11.40;46.70
39493;DHT22;25176;51.060;3.720;2023-04-03T15:25:16;11.30;47.00
39493;DHT22;25176;51.060;3.720;2023-04-03T15:27:43;11.40;47.30
39493;DHT22;25176;51.060;3.720;2023-04-03T15:30:14;11.50;46.30
39493;DHT22;25176;51.060;3.720;2023-04-03T15:32:41;11.40;45.70
39493;DHT22;25176;51.060;3.720;2023-04-03T15:35:07;11.50;46.60
39493;DHT22;25176;51.060;3.720;2023-04-03T15:37:33;11.50;47.10
39493;DHT22;25176;51.060;3.720;2023-04-03T15:39:58;11.50;47.70
39493;DHT22;25176;51.060;3.720;2023-04-03T15:42:24;11.60;48.20
39493;DHT22;25176;51.060;3.720;2023-04-03T15:44:50;11.60;47.70
39493;DHT22;25176;51.060;3.720;2023-04-03T15:47:16;11.40;47.60
39493;DHT22;25176;51.060;3.720;2023-04-03T15:49:41;11.30;48.30
39493;DHT22;25176;51.060;3.720;2023-04-03T15:52:07;11.40;48.40
39493;DHT22;25176;51.060;3.720;2023-04-03T15:54:33;11.50;48.40
39493;DHT22;25176;51.060;3.720;2023-04-03T15:56:58;11.60;47.00
39493;DHT22;25176;51.060;3.720;2023-04-03T15:59:24;11.50;47.00
39493;DHT22;25176;51.060;3.720;2023-04-03T16:01:51;11.50;47.20
39493;DHT22;25176;51.060;3.720;2023-04-03T16:04:17;11.50;47.70
39493;DHT22;25176;51.060;3.720;2023-04-03T16:06:43;11.50;47.10
39493;DHT22;25176;51.060;3.720;2023-04-03T16:09:09;11.40;47.30
39493;DHT22;25176;51.060;3.720;2023-04-03T16:11:36;11.40;47.50
39493;DHT22;25176;51.060;3.720;2023-04-03T16:14:04;11.40;46.80
39493;DHT22;25176;51.060;3.720;2023-04-03T16:16:30;11.40;46.90
39493;DHT22;25176;51.060;3.720;2023-04-03T16:18:55;11.40;46.30
39493;DHT22;25176;51.060;3.720;2023-04-03T16:21:21;11.50;46.60
39493;DHT22;25176;51.060;3.720;2023-04-03T16:23:47;11.50;46.50
39493;DHT22;25176;51.060;3.720;2023-04-03T16:26:13;11.40;46.30
39493;DHT22;25176;51.060;3.720;2023-04-03T16:28:39;11.30;46.20
39493;DHT22;25176;51.060;3.720;2023-04-03T16:31:06;11.40;46.40
39493;DHT22;25176;51.060;3.720;2023-04-03T16:33:32;11.30;46.50
39493;DHT22;25176;51.060;3.720;2023-04-03T16:35:58;11.40;46.70
39493;DHT22;25176;51.060;3.720;2023-04-03T16:38:23;11.20;47.10
39493;DHT22;25176;51.060;3.720;2023-04-03T16:40:49;11.20;47.20
39493;DHT22;25176;51.060;3.720;2023-04-03T16:43:16;11.10;47.00
39493;DHT22;25176;51.060;3.720;2023-04-03T16:45:41;11.10;47.20
39493;DHT22;25176;51.060;3.720;2023-04-03T16:48:08;11.10;47.30
39493;DHT22;25176;51.060;3.720;2023-04-03T16:50:33;11.20;47.20
39493;DHT22;25176;51.060;3.720;2023-04-03T16:52:59;11.10;47.10
39493;DHT22;25176;51.060;3.720;2023-04-03T16:55:25;11.10;47.40
39493;DHT22;25176;51.060;3.720;2023-04-03T16:57:50;11.00;47.60
39493;DHT22;25176;51.060;3.720;2023-04-03T17:00:16;11.10;48.10
39493;DHT22;25176;51.060;3.720;2023-04-03T17:02:42;11.20;47.70
39493;DHT22;25176;51.060;3.720;2023-04-03T17:05:08;11.20;47.70
39493;DHT22;25176;51.060;3.720;2023-04-03T17:07:34;11.20;47.90